createdAt,value
2023-01-12T00:05:37.951Z,20.60
2023-01-12T00:08:05.375Z,22.40
2023-01-12T00:10:32.285Z,24.20
2023-01-12T00:12:59.141Z,21.30
2023-01-12T00:15:44.754Z,18.90
2023-01-12T00:18:11.648Z,22.50
2023-01-12T00:20:38.485Z,14.60
2023-01-12T00:23:05.490Z,19.50
2023-01-12T00:25:32.334Z,18.50
2023-01-12T00:27:59.144Z,30.30
2023-01-12T00:30:25.936Z,17.80
2023-01-12T00:32:52.670Z,19.10
2023-01-12T00:35:19.544Z,23.80
2023-01-12T00:37:46.397Z,25.40
2023-01-12T00:40:13.236Z,17.00
2023-01-12T00:42:59.023Z,15.20
2023-01-12T00:45:25.846Z,25.60
2023-01-12T00:47:53.648Z,26.20
2023-01-12T00:50:20.592Z,29.70
2023-01-12T00:52:47.421Z,26.40
2023-01-12T00:55:14.609Z,19.00
2023-01-12T00:57:41.423Z,31.40
2023-01-12T01:00:09.200Z,17.70
2023-01-12T01:02:36.111Z,21.00
2023-01-12T01:05:03.101Z,25.80
2023-01-12T01:07:29.898Z,25.50
2023-01-12T01:09:56.701Z,27.30
2023-01-12T01:12:23.540Z,22.00
2023-01-12T01:14:50.394Z,25.00
2023-01-12T01:17:17.295Z,22.30
2023-01-12T01:19:44.157Z,34.30
2023-01-12T01:22:13.023Z,27.30
2023-01-12T01:24:41.015Z,32.40
2023-01-12T01:27:07.866Z,19.10
2023-01-12T01:29:34.634Z,24.70
2023-01-12T01:32:01.546Z,32.20
2023-01-12T01:34:28.268Z,29.40
2023-01-12T01:36:55.036Z,33.40
2023-01-12T01:39:21.892Z,26.60
2023-01-12T01:41:48.711Z,29.40
2023-01-12T01:44:30.996Z,39.80
2023-01-12T01:47:27.725Z,42.40
2023-01-12T01:49:55.171Z,31.20
2023-01-12T01:52:21.953Z,25.50
2023-01-12T01:54:54.917Z,31.40
2023-01-12T01:57:24.661Z,30.00
2023-01-12T01:59:53.133Z,25.30
2023-01-12T02:02:19.939Z,25.40
2023-01-12T02:04:46.715Z,27.30
2023-01-12T02:07:13.521Z,30.50
2023-01-12T02:09:40.345Z,27.10
2023-01-12T02:12:26.321Z,18.80
2023-01-12T02:15:12.044Z,16.40
2023-01-12T02:18:14.379Z,26.10
2023-01-12T02:21:05.768Z,24.20
2023-01-12T02:24:05.028Z,26.30
2023-01-12T02:27:10.044Z,31.30
2023-01-12T02:29:57.821Z,26.10
2023-01-12T02:32:36.868Z,23.40
2023-01-12T02:37:58.305Z,27.90
2023-01-12T02:40:59.561Z,33.60
2023-01-12T02:43:29.155Z,27.00
2023-01-12T02:46:01.631Z,18.40
2023-01-12T02:48:31.288Z,16.20
2023-01-12T02:51:14.167Z,25.00
2023-01-12T02:53:50.141Z,20.70
2023-01-12T02:56:28.215Z,15.10
2023-01-12T02:58:56.868Z,24.40
2023-01-12T03:01:24.431Z,19.40
2023-01-12T03:03:51.235Z,28.20
2023-01-12T03:06:18.457Z,22.30
2023-01-12T03:08:46.228Z,24.80
2023-01-12T03:11:17.052Z,27.20
2023-01-12T03:13:48.903Z,26.20
2023-01-12T03:16:18.123Z,25.80
2023-01-12T03:18:51.382Z,29.00
2023-01-12T03:21:30.784Z,30.20
2023-01-12T03:24:02.833Z,22.70
2023-01-12T03:26:29.654Z,22.40
2023-01-12T03:29:09.612Z,25.30
2023-01-12T03:31:36.950Z,23.20
2023-01-12T03:34:05.010Z,18.80
2023-01-12T03:36:38.697Z,22.10
2023-01-12T03:39:13.765Z,17.80
2023-01-12T03:41:45.922Z,20.40
2023-01-12T03:44:19.460Z,29.20
2023-01-12T03:46:53.978Z,25.30
2023-01-12T03:49:25.478Z,20.50
2023-01-12T03:51:52.308Z,19.20
2023-01-12T03:54:19.294Z,20.40
2023-01-12T03:56:46.158Z,26.80
2023-01-12T03:59:12.913Z,26.70
2023-01-12T04:01:41.863Z,21.20
2023-01-12T04:06:35.510Z,14.30
2023-01-12T04:09:02.427Z,22.30
2023-01-12T04:11:47.968Z,32.00
2023-01-12T04:14:14.851Z,20.90
2023-01-12T04:16:41.654Z,45.50
2023-01-12T04:19:08.709Z,31.80
2023-01-12T04:21:54.242Z,33.40
2023-01-12T04:24:21.141Z,35.60
2023-01-12T04:26:48.009Z,44.00
2023-01-12T04:29:14.826Z,22.70
2023-01-12T04:31:41.705Z,27.60
2023-01-12T04:34:08.815Z,23.00
2023-01-12T04:36:35.877Z,28.40
2023-01-12T04:39:03.128Z,28.90
2023-01-12T04:41:31.100Z,26.80
2023-01-12T04:43:58.352Z,28.80
2023-01-12T04:46:25.558Z,35.90
2023-01-12T04:48:52.654Z,15.50
2023-01-12T04:51:19.673Z,23.70
2023-01-12T04:53:48.295Z,23.40
2023-01-12T04:56:15.363Z,16.40
2023-01-12T04:58:42.553Z,20.60
2023-01-12T05:01:14.885Z,15.60
2023-01-12T05:03:43.001Z,16.80
2023-01-12T05:06:10.218Z,23.90
2023-01-12T05:08:56.013Z,22.30
2023-01-12T05:11:28.693Z,31.80
2023-01-12T05:13:56.905Z,32.00
2023-01-12T05:16:24.789Z,26.00
2023-01-12T05:18:53.496Z,22.30
2023-01-12T05:21:22.569Z,23.70
2023-01-12T05:23:51.290Z,20.20
2023-01-12T05:26:18.606Z,22.30
2023-01-12T05:28:48.988Z,17.70
2023-01-12T05:31:16.346Z,27.30
2023-01-12T05:33:43.631Z,17.80
2023-01-12T05:36:12.474Z,22.20
2023-01-12T05:38:39.796Z,25.00
2023-01-12T05:41:10.404Z,25.00
2023-01-12T05:43:52.956Z,27.30
2023-01-12T05:46:28.235Z,36.50
2023-01-12T05:48:55.943Z,23.50
2023-01-12T05:51:23.725Z,37.40
2023-01-12T05:53:50.890Z,26.30
2023-01-12T05:56:20.127Z,32.20
2023-01-12T05:58:51.629Z,42.50
2023-01-12T06:01:18.628Z,29.10
2023-01-12T06:03:51.912Z,39.20
2023-01-12T06:06:19.996Z,40.10
2023-01-12T06:08:47.355Z,27.00
2023-01-12T06:11:32.897Z,39.60
2023-01-12T06:14:00.768Z,38.40
2023-01-12T06:16:28.275Z,47.80
2023-01-12T06:18:55.981Z,40.40
2023-01-12T06:21:25.037Z,31.00
2023-01-12T06:26:19.286Z,34.40
2023-01-12T06:28:46.488Z,39.30
2023-01-12T06:31:13.693Z,57.10
2023-01-12T06:33:41.269Z,50.80
2023-01-12T06:36:08.820Z,39.90
2023-01-12T06:38:37.362Z,51.40
2023-01-12T06:41:29.339Z,53.50
2023-01-12T06:43:57.035Z,54.20
2023-01-12T06:46:24.352Z,39.10
2023-01-12T06:48:51.642Z,33.00
2023-01-12T06:51:18.625Z,39.70
2023-01-12T06:53:45.760Z,35.10
2023-01-12T06:56:13.149Z,38.40
2023-01-12T06:58:43.673Z,47.70
2023-01-12T07:01:13.936Z,53.10
2023-01-12T07:03:41.029Z,44.00
2023-01-12T07:06:08.405Z,38.60
2023-01-12T07:08:35.966Z,31.00
2023-01-12T07:11:04.410Z,32.20
2023-01-12T07:13:31.807Z,39.60
2023-01-12T07:16:02.028Z,49.40
2023-01-12T10:54:28.217Z,53.40
2023-01-12T10:56:57.586Z,90.40
2023-01-12T10:59:29.638Z,78.30
2023-01-12T11:02:06.701Z,43.50
2023-01-12T11:04:43.993Z,53.80
2023-01-12T11:07:22.347Z,43.90
2023-01-12T11:09:49.367Z,69.60
2023-01-12T11:12:20.350Z,60.30
2023-01-12T11:15:14.980Z,49.00
2023-01-12T11:17:49.595Z,53.50
2023-01-12T11:20:54.558Z,47.90
2023-01-12T11:23:33.258Z,36.60
2023-01-12T11:26:01.323Z,38.10
2023-01-12T11:28:34.695Z,53.40
2023-01-12T11:31:15.868Z,53.40
2023-01-12T11:33:55.132Z,55.80
2023-01-12T11:36:30.643Z,42.30
2023-01-12T11:39:01.805Z,37.70
2023-01-12T11:41:34.327Z,35.30
2023-01-12T11:44:28.553Z,60.60
2023-01-12T11:46:59.768Z,52.70
2023-01-12T11:49:39.575Z,82.60
2023-01-12T11:52:09.076Z,105.00
2023-01-12T11:54:36.431Z,65.70
2023-01-12T11:57:25.101Z,62.90
2023-01-12T12:00:01.270Z,65.90
2023-01-12T12:02:39.010Z,58.30
2023-01-12T12:05:18.927Z,66.90
2023-01-12T12:07:49.665Z,91.70
2023-01-12T12:10:24.054Z,78.20
2023-01-12T12:13:11.229Z,84.70
2023-01-12T12:15:56.193Z,70.80
2023-01-12T12:18:41.636Z,99.30
2023-01-12T12:21:32.634Z,99.50
2023-01-12T12:24:06.743Z,55.20
2023-01-12T12:26:39.719Z,42.80
2023-01-12T12:29:19.982Z,54.60
2023-01-12T12:31:52.982Z,36.60
2023-01-12T12:34:27.903Z,44.20
2023-01-12T12:37:02.933Z,44.60
2023-01-12T12:39:56.072Z,47.50
2023-01-12T12:43:06.404Z,47.50
2023-01-12T12:45:43.333Z,38.20
2023-01-12T12:48:21.135Z,38.00
2023-01-12T12:51:03.122Z,43.30
2023-01-12T12:53:33.408Z,52.70
2023-01-12T12:56:11.156Z,45.00
2023-01-12T12:58:44.984Z,40.90
2023-01-12T13:01:21.330Z,50.90
2023-01-12T13:03:49.194Z,46.30
2023-01-12T13:06:29.345Z,39.30
2023-01-12T13:08:57.626Z,52.00
2023-01-12T18:09:26.106Z,61.90
2023-01-12T18:11:52.993Z,52.30
2023-01-12T18:14:21.485Z,53.40
2023-01-12T18:16:48.284Z,55.70
2023-01-12T18:19:15.152Z,38.60
2023-01-12T18:21:42.082Z,49.00
2023-01-12T18:24:09.005Z,44.80
2023-01-12T18:26:36.087Z,49.30
2023-01-12T18:29:04.474Z,50.90
2023-01-12T18:31:32.281Z,55.10
2023-01-12T18:34:06.297Z,51.50
2023-01-12T18:36:37.870Z,45.30
2023-01-12T18:39:06.190Z,46.00
2023-01-12T18:41:51.931Z,58.00
2023-01-12T18:44:18.730Z,64.30
2023-01-12T18:47:04.281Z,63.40
2023-01-12T18:49:33.375Z,52.10
2023-01-12T18:54:48.236Z,70.70
2023-01-12T18:57:19.310Z,74.80
2023-01-12T18:59:46.754Z,73.70
2023-01-12T19:02:13.927Z,73.50
2023-01-12T19:04:43.726Z,70.80
2023-01-12T19:07:12.916Z,76.80
2023-01-12T19:09:39.860Z,65.50
2023-01-12T19:12:06.908Z,65.20
2023-01-12T19:14:52.799Z,68.80
2023-01-12T19:17:32.777Z,71.20
2023-01-12T19:20:01.547Z,51.60
2023-01-12T19:22:47.225Z,70.20
2023-01-12T19:25:33.926Z,68.30
2023-01-12T19:28:19.830Z,64.20
2023-01-12T19:30:46.937Z,68.40
2023-01-12T19:33:17.367Z,54.80
2023-01-12T19:35:45.359Z,49.90
2023-01-12T19:38:15.382Z,57.30
2023-01-12T19:40:49.687Z,51.90
2023-01-12T19:43:20.454Z,55.40
2023-01-12T19:45:49.634Z,51.00
2023-01-12T19:48:17.660Z,46.80
2023-01-12T19:50:44.956Z,51.30
2023-01-12T19:53:13.472Z,55.50
2023-01-12T19:55:41.276Z,35.50
2023-01-12T19:58:09.498Z,50.20
2023-01-12T20:00:39.283Z,45.80
2023-01-12T20:03:06.394Z,47.10
2023-01-12T20:05:33.305Z,45.50
2023-01-12T20:08:00.227Z,47.00
2023-01-12T20:10:27.116Z,41.50
2023-01-12T20:12:54.838Z,56.30
2023-01-12T20:15:22.029Z,45.50
2023-01-12T20:17:49.444Z,47.80
2023-01-12T20:20:16.999Z,58.10
2023-01-12T20:22:44.145Z,56.10
2023-01-12T20:25:11.087Z,65.20
2023-01-12T20:27:38.135Z,64.00
2023-01-12T20:30:06.017Z,59.30
2023-01-12T20:32:34.981Z,63.40
2023-01-12T20:35:05.927Z,59.10
2023-01-12T20:37:33.799Z,51.20
2023-01-12T20:40:00.954Z,54.50
2023-01-12T20:42:29.296Z,54.10
2023-01-12T20:44:57.587Z,52.60
2023-01-12T20:47:28.480Z,50.80
2023-01-12T20:49:55.896Z,52.60
2023-01-12T20:52:23.867Z,39.00
2023-01-12T20:54:50.745Z,53.40
2023-01-12T20:57:17.720Z,61.70
2023-01-12T20:59:44.689Z,87.70
2023-01-12T21:02:29.871Z,92.70
2023-01-12T21:04:56.678Z,62.00
2023-01-12T21:07:23.659Z,85.80
2023-01-12T21:09:50.500Z,53.50
2023-01-12T21:12:17.352Z,68.00
2023-01-12T21:14:44.131Z,73.30
2023-01-12T21:17:11.749Z,85.90
2023-01-12T21:19:38.692Z,68.40
2023-01-12T21:22:05.501Z,45.20
2023-01-12T21:24:32.478Z,42.30
2023-01-12T21:26:59.430Z,45.20
2023-01-12T21:29:26.413Z,32.70
2023-01-12T21:31:53.463Z,38.10
2023-01-12T21:34:20.504Z,34.90
2023-01-12T21:36:47.521Z,29.30
2023-01-12T21:39:14.533Z,46.90
2023-01-12T21:42:00.219Z,45.10
2023-01-12T21:44:27.807Z,33.90
2023-01-12T21:46:54.571Z,39.20
2023-01-12T21:49:21.458Z,51.80
2023-01-12T21:51:48.258Z,60.70
2023-01-12T21:54:15.071Z,50.20
2023-01-12T21:56:41.918Z,39.10
2023-01-12T21:59:10.452Z,37.80
2023-01-12T22:01:37.235Z,48.60
2023-01-12T22:04:04.359Z,33.00
2023-01-12T22:06:31.338Z,28.40
2023-01-12T22:08:58.715Z,35.10
2023-01-12T22:11:25.583Z,28.00
2023-01-12T22:13:52.572Z,39.50
2023-01-12T22:16:19.441Z,31.50
2023-01-12T22:18:49.393Z,29.80
2023-01-12T22:21:17.136Z,32.00
2023-01-12T22:23:44.054Z,59.90
2023-01-12T22:26:12.553Z,35.70
2023-01-12T22:28:41.176Z,45.00
2023-01-12T22:31:09.154Z,52.70
2023-01-12T22:33:36.685Z,37.00
2023-01-12T22:36:04.665Z,56.30
2023-01-12T22:38:31.565Z,45.80
2023-01-12T22:41:06.386Z,38.40
2023-01-12T22:43:38.717Z,44.40
2023-01-12T22:46:05.579Z,41.30
2023-01-12T22:48:32.488Z,43.70
2023-01-12T22:50:59.886Z,36.40
2023-01-12T22:53:26.723Z,44.80
2023-01-12T22:55:53.549Z,35.40
2023-01-12T22:58:20.424Z,34.50
2023-01-12T23:00:48.903Z,41.90
2023-01-12T23:03:15.987Z,49.50
2023-01-12T23:05:46.010Z,47.20
2023-01-12T23:08:13.939Z,43.00
2023-01-12T23:10:41.498Z,36.90
2023-01-12T23:13:11.853Z,39.30
2023-01-12T23:15:43.504Z,34.70
2023-01-12T23:18:10.727Z,46.30
2023-01-12T23:20:38.390Z,33.90
2023-01-12T23:23:06.046Z,37.20
2023-01-12T23:25:33.545Z,46.80
2023-01-12T23:28:00.756Z,57.50
2023-01-12T23:30:30.868Z,49.70
2023-01-12T23:33:01.410Z,42.10
2023-01-12T23:35:28.349Z,40.60
2023-01-12T23:37:55.300Z,42.30
2023-01-12T23:40:22.257Z,130.10
2023-01-12T23:42:49.287Z,134.40
2023-01-12T23:45:16.339Z,94.50
2023-01-12T23:47:43.289Z,49.30
2023-01-12T23:50:11.576Z,44.70
2023-01-12T23:52:38.567Z,49.00
2023-01-12T23:55:05.958Z,67.90
2023-01-12T23:57:33.921Z,97.40
